Time;durP1;ratioP1;P1;durP2;ratioP2;P2;SDS_P1;SDS_P2;PMS_P1;PMS_P2;Temp;Humidity;BMP_temperature;BMP_pressure;BME280_temperature;BME280_humidity;BME280_pressure;Samples;Min_cycle;Max_cycle;Signal;HPM_P1;HPM_P2
2022/07/17 00:00:43;;;;;;;8.00;4.53;;;14.00;99.90;;;;;;5006512;28;20077;-66
2022/07/17 00:03:09;;;;;;;10.32;4.25;;;14.00;99.90;;;;;;4995841;28;20486;-66
2022/07/17 00:05:35;;;;;;;8.35;4.88;;;14.00;99.90;;;;;;5005836;28;20049;-66
2022/07/17 00:08:01;;;;;;;9.98;4.35;;;14.00;99.90;;;;;;4997943;28;20448;-66
2022/07/17 00:10:27;;;;;;;10.53;3.40;;;13.90;99.90;;;;;;4999937;28;20069;-67
2022/07/17 00:12:52;;;;;;;5.20;3.45;;;13.90;99.90;;;;;;4998890;28;20367;-67
2022/07/17 00:15:19;;;;;;;7.15;4.20;;;13.90;99.90;;;;;;5006185;28;20069;-66
2022/07/17 00:17:45;;;;;;;7.47;3.28;;;13.90;99.90;;;;;;5004388;28;20045;-67
2022/07/17 00:20:11;;;;;;;6.60;3.80;;;13.90;99.90;;;;;;5002794;28;20037;-66
2022/07/17 00:22:37;;;;;;;;;;;13.90;99.90;;;;;;5005058;28;20088;-66
2022/07/17 00:25:03;;;;;;;11.80;5.15;;;13.90;99.90;;;;;;5010316;28;19921;-67
2022/07/17 00:27:29;;;;;;;9.60;5.13;;;13.90;99.90;;;;;;4998055;28;20087;-66
2022/07/17 00:29:55;;;;;;;8.47;4.30;;;13.90;99.90;;;;;;5005533;28;20094;-67
2022/07/17 00:32:23;;;;;;;6.50;4.03;;;13.90;99.90;;;;;;4986300;28;20042;-66
2022/07/17 00:34:49;;;;;;;8.15;4.50;;;13.90;99.90;;;;;;5008181;28;20136;-66
2022/07/17 00:37:15;;;;;;;6.72;3.90;;;13.80;99.90;;;;;;5003282;28;20046;-66
2022/07/17 00:39:40;;;;;;;8.73;4.20;;;13.80;99.90;;;;;;5004657;28;20530;-66
2022/07/17 00:42:11;;;;;;;9.87;3.47;;;13.80;99.90;;;;;;5002714;28;20157;-67
2022/07/17 00:44:37;;;;;;;5.40;3.42;;;13.80;99.90;;;;;;4999327;28;20050;-66
2022/07/17 00:47:02;;;;;;;6.53;3.03;;;13.80;99.90;;;;;;5000800;28;20100;-67
2022/07/17 00:49:28;;;;;;;5.70;2.93;;;13.70;99.90;;;;;;5008791;28;20038;-67
2022/07/17 00:51:53;;;;;;;8.43;2.60;;;13.70;99.90;;;;;;5002578;28;20309;-66
2022/07/17 00:54:21;;;;;;;5.17;2.60;;;13.70;99.90;;;;;;4999647;28;20065;-66
2022/07/17 00:56:48;;;;;;;5.30;2.40;;;13.60;99.90;;;;;;4997572;28;20069;-66
2022/07/17 00:59:15;;;;;;;3.33;1.90;;;13.60;99.90;;;;;;4998076;28;20065;-66
2022/07/17 01:01:41;;;;;;;3.92;2.00;;;13.50;99.90;;;;;;5004136;28;20105;-66
2022/07/17 01:04:06;;;;;;;4.30;2.17;;;13.50;99.90;;;;;;5008429;28;20447;-67
2022/07/17 01:06:32;;;;;;;2.37;1.73;;;13.50;99.90;;;;;;5000508;28;20039;-66
2022/07/17 01:08:58;;;;;;;5.45;1.88;;;13.50;99.90;;;;;;5002096;28;20026;-67
2022/07/17 01:11:24;;;;;;;2.60;1.80;;;13.50;99.90;;;;;;4995319;28;20042;-67
2022/07/17 01:13:50;;;;;;;2.75;1.80;;;13.40;99.90;;;;;;5009542;28;20161;-67
2022/07/17 01:16:16;;;;;;;4.82;2.90;;;13.50;99.90;;;;;;5002145;28;20421;-66
2022/07/17 01:18:41;;;;;;;5.90;3.00;;;13.50;99.90;;;;;;5004070;28;20072;-66
2022/07/17 01:21:07;;;;;;;5.75;2.92;;;13.50;99.90;;;;;;5002596;28;20033;-66
2022/07/17 01:23:33;;;;;;;5.78;2.47;;;13.40;99.90;;;;;;5007809;28;20159;-66
2022/07/17 01:25:59;;;;;;;6.50;2.60;;;13.40;99.90;;;;;;5003711;28;20034;-67
2022/07/17 01:28:25;;;;;;;5.43;1.97;;;13.40;99.90;;;;;;4996478;28;20056;-67
2022/07/17 01:30:52;;;;;;;4.22;1.60;;;13.40;99.90;;;;;;5002520;28;20041;-66
2022/07/17 01:33:18;;;;;;;4.40;2.05;;;13.40;99.90;;;;;;5008955;28;20085;-66
2022/07/17 01:35:44;;;;;;;7.30;1.95;;;13.40;99.90;;;;;;5004190;28;20418;-66
2022/07/17 01:38:10;;;;;;;3.25;1.65;;;13.40;99.90;;;;;;5005699;28;20030;-67
2022/07/17 01:40:35;;;;;;;3.63;1.70;;;13.30;99.90;;;;;;4996700;28;20124;-66
2022/07/17 01:43:01;;;;;;;4.53;1.77;;;13.30;99.90;;;;;;5011794;28;20030;-67
2022/07/17 01:45:27;;;;;;;3.87;1.67;;;13.30;99.90;;;;;;4999427;28;20105;-67
2022/07/17 01:47:53;;;;;;;3.78;1.55;;;13.20;99.90;;;;;;5005315;28;20065;-67
2022/07/17 01:50:18;;;;;;;4.80;2.50;;;13.30;99.90;;;;;;5006514;28;20455;-67
2022/07/17 01:52:45;;;;;;;3.57;1.40;;;13.30;99.90;;;;;;4996940;28;20268;-67
2022/07/17 01:55:12;;;;;;;;;;;13.30;99.90;;;;;;5001701;28;20306;-66
2022/07/17 01:57:38;;;;;;;4.00;1.63;;;13.30;99.90;;;;;;4999655;28;19925;-67
2022/07/17 02:00:06;;;;;;;3.40;1.75;;;13.30;99.90;;;;;;5004072;28;20397;-66
2022/07/17 02:02:32;;;;;;;2.63;1.73;;;13.30;99.90;;;;;;5000153;28;20070;-66
2022/07/17 02:04:57;;;;;;;2.63;1.50;;;13.30;99.90;;;;;;5005604;28;20073;-66
2022/07/17 02:07:23;;;;;;;6.63;2.07;;;13.30;99.90;;;;;;5004846;28;20048;-67
2022/07/17 02:09:49;;;;;;;4.37;1.97;;;13.30;99.90;;;;;;5003256;28;20044;-67
2022/07/17 02:12:14;;;;;;;4.53;1.87;;;13.30;99.90;;;;;;5003678;28;20042;-66
2022/07/17 02:14:40;;;;;;;4.17;1.90;;;13.20;99.90;;;;;;5003265;28;20117;-67
2022/07/17 02:17:05;;;;;;;4.07;1.70;;;13.30;99.90;;;;;;5004842;28;20060;-67
2022/07/17 02:19:31;;;;;;;9.77;1.90;;;13.30;99.90;;;;;;5005715;28;20042;-66
2022/07/17 02:21:57;;;;;;;5.23;2.00;;;13.30;99.90;;;;;;5003207;28;20034;-67
2022/07/17 02:24:22;;;;;;;6.00;1.65;;;13.20;99.90;;;;;;5004307;28;20391;-66
2022/07/17 02:26:48;;;;;;;4.18;1.60;;;13.20;99.90;;;;;;5009830;28;20050;-66
2022/07/17 02:29:13;;;;;;;2.97;1.50;;;13.20;99.90;;;;;;5005204;28;20322;-66
2022/07/17 02:31:39;;;;;;;6.17;2.23;;;13.20;99.90;;;;;;5000581;28;20273;-66
2022/07/17 02:34:05;;;;;;;3.93;1.77;;;13.10;99.90;;;;;;5006869;28;20519;-66
2022/07/17 02:36:30;;;;;;;2.63;1.10;;;13.10;99.90;;;;;;5000375;28;20103;-66
2022/07/17 02:38:56;;;;;;;5.75;1.42;;;13.10;99.90;;;;;;4998556;28;20053;-66
2022/07/17 02:41:22;;;;;;;2.88;1.60;;;13.10;99.90;;;;;;5006406;28;20398;-66
2022/07/17 02:43:48;;;;;;;3.33;1.43;;;13.10;99.90;;;;;;5003779;28;20046;-66
2022/07/17 02:46:14;;;;;;;5.60;1.95;;;13.10;99.90;;;;;;5001778;28;20159;-66
2022/07/17 02:48:41;;;;;;;5.30;1.70;;;13.00;99.90;;;;;;5008023;28;20298;-66
2022/07/17 02:51:06;;;;;;;4.85;2.10;;;13.00;99.90;;;;;;5000982;28;20459;-66
2022/07/17 02:53:32;;;;;;;6.07;2.30;;;13.00;99.90;;;;;;5005546;28;20060;-67
2022/07/17 02:55:58;;;;;;;2.70;1.77;;;13.00;99.90;;;;;;5003359;28;20546;-66
2022/07/17 02:58:24;;;;;;;3.58;2.28;;;12.90;99.90;;;;;;4998632;28;20438;-66
2022/07/17 03:00:50;;;;;;;5.43;2.10;;;13.00;99.90;;;;;;5008351;28;20042;-66
2022/07/17 03:03:15;;;;;;;3.87;2.07;;;12.90;99.90;;;;;;5006532;28;20041;-66
2022/07/17 03:05:41;;;;;;;7.77;2.57;;;12.90;99.90;;;;;;5003386;28;20056;-67
2022/07/17 03:08:06;;;;;;;4.80;2.20;;;12.90;99.90;;;;;;5002423;28;20116;-67
2022/07/17 03:10:32;;;;;;;4.73;2.13;;;12.90;99.90;;;;;;5007402;28;20367;-66
2022/07/17 03:12:58;;;;;;;4.82;2.38;;;12.90;99.90;;;;;;4992707;28;20037;-66
2022/07/17 03:15:24;;;;;;;4.68;2.10;;;12.90;99.90;;;;;;5004352;28;20056;-67
2022/07/17 03:17:49;;;;;;;4.28;1.92;;;12.80;99.90;;;;;;4997138;28;20048;-67
2022/07/17 03:20:15;;;;;;;7.40;2.27;;;12.80;99.90;;;;;;4998771;28;20521;-66
2022/07/17 03:22:40;;;;;;;4.47;2.03;;;12.80;99.90;;;;;;4998423;28;20045;-66
2022/07/17 03:25:07;;;;;;;4.50;1.93;;;12.80;99.90;;;;;;4997386;28;20458;-66
2022/07/17 03:27:32;;;;;;;;;;;12.80;99.90;;;;;;5003651;28;20285;-66
2022/07/17 03:29:58;;;;;;;7.03;2.00;;;12.80;99.90;;;;;;5008790;28;19975;-66
2022/07/17 03:32:24;;;;;;;4.47;2.07;;;12.70;99.90;;;;;;5004008;28;20090;-66
2022/07/17 03:34:49;;;;;;;5.68;2.13;;;12.70;99.90;;;;;;5005647;28;20391;-67
2022/07/17 03:37:15;;;;;;;5.30;2.10;;;12.70;99.90;;;;;;5005504;28;20109;-67
2022/07/17 03:39:41;;;;;;;3.30;2.15;;;12.70;99.90;;;;;;5004231;28;20781;-66
2022/07/17 03:42:07;;;;;;;2.78;1.90;;;12.70;99.90;;;;;;5000378;28;20038;-66
2022/07/17 03:44:32;;;;;;;4.30;2.30;;;12.70;99.90;;;;;;5003180;28;20056;-66
2022/07/17 03:46:58;;;;;;;5.43;2.40;;;12.70;99.90;;;;;;5002921;28;20076;-66
2022/07/17 03:49:24;;;;;;;3.83;2.33;;;12.80;99.90;;;;;;4999887;28;20051;-66
2022/07/17 03:51:50;;;;;;;3.85;1.90;;;12.80;99.90;;;;;;5000385;28;20281;-67
2022/07/17 03:54:16;;;;;;;5.38;2.72;;;12.90;99.90;;;;;;5016083;28;20052;-66
2022/07/17 03:56:41;;;;;;;5.10;2.40;;;12.90;99.90;;;;;;4987921;28;20042;-66
2022/07/17 03:59:07;;;;;;;4.93;2.30;;;13.00;99.90;;;;;;5007560;28;20062;-67
2022/07/17 04:01:32;;;;;;;4.97;2.20;;;13.00;99.90;;;;;;4989579;28;20374;-67
2022/07/17 04:03:58;;;;;;;2.40;1.57;;;13.10;99.90;;;;;;5008261;28;20049;-67
2022/07/17 04:06:24;;;;;;;5.67;2.07;;;13.10;99.90;;;;;;5005592;28;20510;-67
2022/07/17 04:08:49;;;;;;;3.13;1.90;;;13.10;99.90;;;;;;5008380;28;20033;-67
2022/07/17 04:11:15;;;;;;;4.00;1.90;;;13.10;99.90;;;;;;5007015;28;20102;-67
2022/07/17 04:13:40;;;;;;;3.27;1.87;;;13.10;99.90;;;;;;5000470;28;20054;-66
2022/07/17 04:16:06;;;;;;;4.50;1.80;;;13.10;99.90;;;;;;5003744;28;20123;-67
2022/07/17 04:18:35;;;;;;;4.35;1.88;;;13.10;99.90;;;;;;5012684;28;20048;-66
2022/07/17 04:21:03;;;;;;;5.03;1.92;;;13.20;99.90;;;;;;5009574;28;20121;-67
2022/07/17 04:23:28;;;;;;;2.50;1.45;;;13.20;99.90;;;;;;5003150;28;20041;-66
2022/07/17 04:25:54;;;;;;;4.20;2.00;;;13.20;99.90;;;;;;5014123;28;20111;-66
2022/07/17 04:28:20;;;;;;;3.00;1.50;;;13.20;99.90;;;;;;5007270;28;20042;-67
2022/07/17 04:30:46;;;;;;;;;;;13.20;99.90;;;;;;5014400;28;20277;-66
2022/07/17 04:33:12;;;;;;;3.67;1.45;;;13.30;99.90;;;;;;5004698;28;20342;-66
2022/07/17 04:35:38;;;;;;;1.67;1.02;;;13.30;99.90;;;;;;5010528;28;20042;-67
2022/07/17 04:38:05;;;;;;;4.93;1.65;;;13.40;99.90;;;;;;5004046;28;20034;-67
2022/07/17 04:40:31;;;;;;;3.10;0.95;;;13.40;99.90;;;;;;5003935;28;20121;-66
2022/07/17 04:42:56;;;;;;;4.00;1.30;;;13.40;99.90;;;;;;5012797;28;20026;-69
2022/07/17 04:45:22;;;;;;;2.63;1.17;;;13.40;99.90;;;;;;5005549;28;20053;-69
2022/07/17 04:47:48;;;;;;;4.30;1.27;;;13.50;99.90;;;;;;5004901;28;20103;-69
2022/07/17 04:50:14;;;;;;;6.30;1.17;;;13.50;99.90;;;;;;5004388;28;20042;-69
2022/07/17 04:52:39;;;;;;;3.13;0.97;;;13.50;99.90;;;;;;5007100;28;20053;-69
2022/07/17 04:55:05;;;;;;;3.90;1.42;;;13.60;99.90;;;;;;5005291;28;20100;-69
2022/07/17 04:57:31;;;;;;;4.00;0.90;;;13.60;99.90;;;;;;5000612;28;20038;-69
2022/07/17 04:59:57;;;;;;;3.77;1.40;;;13.60;99.90;;;;;;5010054;28;20111;-69
2022/07/17 05:02:23;;;;;;;1.73;0.87;;;13.60;99.90;;;;;;5002121;28;20277;-69
2022/07/17 05:04:48;;;;;;;6.28;0.90;;;13.60;99.90;;;;;;5000501;28;20300;-69
2022/07/17 05:07:17;;;;;;;4.50;0.60;;;13.70;99.90;;;;;;5031198;22;20052;-84
2022/07/17 05:09:54;;;;;;;2.13;1.05;;;13.60;99.90;;;;;;4993311;28;20050;-84
2022/07/17 05:12:19;;;;;;;3.95;1.10;;;13.70;99.90;;;;;;5025858;28;20103;-84
2022/07/17 05:14:48;;;;;;;2.63;0.85;;;13.80;99.90;;;;;;5011122;28;20471;-87
2022/07/17 05:17:18;;;;;;;3.17;1.00;;;13.70;99.90;;;;;;4993368;28;20057;-85
2022/07/17 05:19:47;;;;;;;2.05;0.65;;;13.70;99.90;;;;;;5016970;28;20571;-83
2022/07/17 05:22:15;;;;;;;2.80;0.93;;;13.70;99.90;;;;;;5010583;28;20213;-82
2022/07/17 05:24:43;;;;;;;2.88;1.13;;;13.80;99.90;;;;;;5010794;28;20423;-83
2022/07/17 05:27:14;;;;;;;2.15;0.93;;;13.80;99.90;;;;;;5015263;28;20046;-84
2022/07/17 05:29:46;;;;;;;2.55;0.57;;;13.80;99.90;;;;;;5013132;28;20046;-84
2022/07/17 05:32:17;;;;;;;3.08;0.75;;;13.80;99.90;;;;;;5013700;28;20038;-86
2022/07/17 05:34:54;;;;;;;3.90;0.98;;;13.90;99.90;;;;;;4998911;28;20103;-81
2022/07/17 05:37:22;;;;;;;2.22;0.93;;;13.90;99.90;;;;;;5020132;28;20034;-84
2022/07/17 05:39:51;;;;;;;2.05;0.90;;;13.90;99.90;;;;;;5016173;28;20897;-83
2022/07/17 05:42:17;;;;;;;2.65;0.77;;;13.90;99.90;;;;;;5013184;28;20080;-84
2022/07/17 05:44:50;;;;;;;3.67;0.80;;;14.00;99.90;;;;;;5001027;28;20180;-82
2022/07/17 05:47:19;;;;;;;3.10;0.90;;;14.00;99.90;;;;;;5012940;28;20042;-84
2022/07/17 05:49:50;;;;;;;2.03;0.77;;;14.00;99.90;;;;;;5013236;28;20117;-83
2022/07/17 05:52:26;;;;;;;4.03;1.08;;;14.10;99.90;;;;;;5016682;28;20095;-86
2022/07/17 05:55:04;;;;;;;2.40;0.80;;;14.10;99.90;;;;;;5017246;28;20459;-84
2022/07/17 05:57:30;;;;;;;1.83;0.80;;;14.10;99.90;;;;;;5004117;28;20133;-86
2022/07/17 06:00:01;;;;;;;0.88;0.55;;;14.20;99.90;;;;;;4992595;28;20496;-84
2022/07/17 06:02:27;;;;;;;3.70;0.80;;;14.20;99.90;;;;;;4998199;28;20128;-84
2022/07/17 06:04:56;;;;;;;3.75;0.73;;;14.30;99.90;;;;;;5014446;28;20077;-85
2022/07/17 06:07:27;;;;;;;4.43;0.60;;;14.30;99.90;;;;;;5008470;28;20037;-83
2022/07/17 06:09:57;;;;;;;3.33;0.73;;;14.40;99.90;;;;;;4993137;28;20261;-84
2022/07/17 06:15:15;;;;;;;1.98;0.73;;;14.50;99.90;;;;;;5009825;28;20043;-84
2022/07/17 06:18:04;;;;;;;3.92;0.55;;;14.60;99.90;;;;;;5022697;28;20053;-84
2022/07/17 06:20:37;;;;;;;3.67;0.70;;;14.70;99.90;;;;;;5011696;28;20068;-86
2022/07/17 06:23:21;;;;;;;2.20;0.50;;;14.80;99.90;;;;;;4997570;28;20035;-87
2022/07/17 06:25:49;;;;;;;1.48;0.60;;;14.90;99.90;;;;;;4996221;28;20694;-83
2022/07/17 06:28:15;;;;;;;2.05;0.70;;;14.90;99.90;;;;;;5020389;28;20068;-84
2022/07/17 06:30:46;;;;;;;4.85;0.50;;;15.00;99.90;;;;;;5019326;28;20050;-85
2022/07/17 06:33:14;;;;;;;4.13;0.80;;;15.00;99.90;;;;;;5019270;28;20515;-83
2022/07/17 06:35:45;;;;;;;3.90;0.57;;;15.00;99.90;;;;;;5017826;28;20041;-84
2022/07/17 06:38:20;;;;;;;2.30;0.55;;;15.20;99.90;;;;;;5012802;28;20046;-84
2022/07/17 06:40:51;;;;;;;1.90;0.60;;;15.20;99.90;;;;;;4997417;28;20496;-83
2022/07/17 06:43:24;;;;;;;2.95;0.70;;;15.30;99.90;;;;;;5001490;28;20096;-88
2022/07/17 06:45:53;;;;;;;1.83;0.57;;;15.40;99.90;;;;;;5011254;28;20045;-84
2022/07/17 06:48:19;;;;;;;2.95;0.65;;;15.40;99.90;;;;;;5005306;28;20030;-84
2022/07/17 06:50:48;;;;;;;1.60;0.50;;;15.50;99.90;;;;;;5005059;28;20058;-84
2022/07/17 06:53:16;;;;;;;3.30;0.88;;;15.60;99.90;;;;;;5008410;28;20064;-84
2022/07/17 06:55:48;;;;;;;2.33;0.50;;;15.60;99.90;;;;;;5000397;28;20057;-86
2022/07/17 06:58:17;;;;;;;4.28;0.70;;;15.80;99.90;;;;;;5012961;28;20038;-85
2022/07/17 07:00:46;;;;;;;2.83;0.70;;;15.70;99.90;;;;;;5010612;28;20038;-84
2022/07/17 07:03:14;;;;;;;0.85;0.40;;;15.90;99.90;;;;;;5007112;28;20045;-85
2022/07/17 07:05:54;;;;;;;2.20;0.35;;;15.90;99.90;;;;;;5012805;28;20049;-84
2022/07/17 07:08:27;;;;;;;3.40;0.70;;;16.00;99.90;;;;;;5008606;28;20095;-85
2022/07/17 07:10:52;;;;;;;1.52;0.50;;;16.00;99.90;;;;;;5011596;28;20041;-83
2022/07/17 07:13:18;;;;;;;1.30;0.30;;;16.10;99.90;;;;;;5012457;28;20037;-85
2022/07/17 07:15:47;;;;;;;3.80;0.65;;;16.10;99.90;;;;;;5008793;28;20102;-86
2022/07/17 07:18:16;;;;;;;2.15;0.60;;;16.10;99.90;;;;;;5012648;28;20379;-87
2022/07/17 07:20:48;;;;;;;2.83;0.50;;;16.20;99.90;;;;;;5008325;28;20057;-83
2022/07/17 07:23:24;;;;;;;6.65;0.90;;;16.20;99.90;;;;;;5006008;28;20049;-84
2022/07/17 07:25:50;;;;;;;2.20;0.68;;;16.20;99.90;;;;;;5004728;28;20038;-84
2022/07/17 07:28:19;;;;;;;2.10;0.38;;;16.30;99.90;;;;;;5013816;28;20461;-84
2022/07/17 07:30:59;;;;;;;1.65;0.55;;;16.30;99.90;;;;;;4994950;28;20080;-84
2022/07/17 07:33:31;;;;;;;3.80;0.80;;;16.30;99.90;;;;;;5013451;28;20046;-88
2022/07/17 07:36:15;;;;;;;2.95;0.52;;;16.20;99.90;;;;;;4991718;28;20042;-85
2022/07/17 07:39:07;;;;;;;3.88;0.95;;;16.20;99.90;;;;;;5011501;28;20104;-83
2022/07/17 07:41:33;;;;;;;1.25;0.50;;;16.20;99.90;;;;;;5001571;28;20050;-85
2022/07/17 07:43:59;;;;;;;3.00;0.70;;;16.20;99.90;;;;;;5008692;28;20049;-85
2022/07/17 07:46:30;;;;;;;3.17;0.68;;;16.30;99.90;;;;;;4996912;28;20396;-84
2022/07/17 07:48:56;;;;;;;2.13;0.60;;;16.30;99.90;;;;;;4992149;28;20133;-84
2022/07/17 07:51:24;;;;;;;1.30;0.43;;;16.50;99.90;;;;;;5012587;28;20461;-82
2022/07/17 07:53:53;;;;;;;1.27;0.47;;;16.40;99.90;;;;;;5010769;28;20407;-85
2022/07/17 07:56:25;;;;;;;3.45;0.52;;;16.50;99.90;;;;;;5012758;28;20526;-86
2022/07/17 07:58:50;;;;;;;3.85;0.75;;;16.50;99.90;;;;;;5011422;28;20038;-84
2022/07/17 08:01:26;;;;;;;2.03;0.70;;;16.60;99.90;;;;;;5000431;28;20042;-85
2022/07/17 08:04:02;;;;;;;5.85;0.65;;;16.60;99.90;;;;;;5010506;28;20052;-84
2022/07/17 08:06:48;;;;;;;1.98;0.40;;;16.70;99.90;;;;;;4994550;28;20034;-88
2022/07/17 08:09:14;;;;;;;2.95;0.60;;;16.80;99.90;;;;;;4993561;28;20041;-85
2022/07/17 08:11:46;;;;;;;3.17;0.73;;;16.90;99.90;;;;;;5011513;28;20676;-87
2022/07/17 08:14:14;;;;;;;4.45;0.70;;;17.00;99.90;;;;;;5007514;28;20053;-85
2022/07/17 08:16:54;;;;;;;4.70;0.75;;;17.00;99.90;;;;;;4991115;28;20066;-86
2022/07/17 08:19:23;;;;;;;2.85;0.70;;;17.10;99.90;;;;;;5010489;28;20034;-88
2022/07/17 08:21:49;;;;;;;6.22;0.70;;;17.10;99.90;;;;;;5002931;28;20050;-86
2022/07/17 08:24:19;;;;;;;2.33;0.98;;;17.20;99.90;;;;;;5006110;28;20488;-86
2022/07/17 08:26:56;;;;;;;1.52;0.90;;;17.30;99.90;;;;;;4988173;28;20076;-87
2022/07/17 08:29:25;;;;;;;4.60;0.93;;;17.30;99.90;;;;;;5016403;28;20066;-86
2022/07/17 08:32:02;;;;;;;2.10;0.73;;;17.40;99.90;;;;;;4998486;28;20114;-88
2022/07/17 08:34:27;;;;;;;;;;;17.50;99.90;;;;;;5009467;28;20113;-86
2022/07/17 08:36:59;;;;;;;2.38;0.70;;;17.60;99.90;;;;;;4986319;28;20422;-85
2022/07/17 08:39:27;;;;;;;2.83;0.60;;;17.60;99.90;;;;;;5014404;28;20037;-85
2022/07/17 08:41:53;;;;;;;2.00;0.57;;;17.70;99.90;;;;;;5018073;28;20073;-85
2022/07/17 08:44:27;;;;;;;2.17;0.70;;;17.80;99.90;;;;;;4995088;28;20070;-86
2022/07/17 08:47:00;;;;;;;4.70;0.70;;;17.80;99.90;;;;;;5020071;28;20038;-86
2022/07/17 08:49:30;;;;;;;3.80;0.80;;;17.90;99.90;;;;;;4997228;28;20041;-88
2022/07/17 08:52:05;;;;;;;3.70;0.65;;;18.00;99.90;;;;;;4994618;28;20046;-85
2022/07/17 08:54:33;;;;;;;1.73;0.47;;;18.00;99.90;;;;;;5003580;28;20068;-86
2022/07/17 08:57:16;;;;;;;1.35;0.70;;;18.00;99.90;;;;;;4998286;28;20049;-84
2022/07/17 08:59:56;;;;;;;2.25;0.60;;;18.10;99.90;;;;;;5007848;28;20035;-84
2022/07/17 09:02:35;;;;;;;1.20;0.73;;;18.20;99.90;;;;;;5020247;28;20033;-85
2022/07/17 09:05:15;;;;;;;2.78;0.50;;;18.20;99.90;;;;;;5010802;28;20048;-84
2022/07/17 09:07:49;;;;;;;4.32;0.80;;;18.30;99.90;;;;;;4986676;28;20054;-86
2022/07/17 09:10:30;;;;;;;2.95;1.00;;;18.40;99.90;;;;;;4999251;28;20048;-85
2022/07/17 09:13:00;;;;;;;0.82;0.45;;;18.60;99.90;;;;;;4994633;28;20186;-88
2022/07/17 09:15:49;;;;;;;4.00;0.80;;;18.70;99.90;;;;;;4996813;28;20076;-87
2022/07/17 09:18:18;;;;;;;3.05;0.60;;;18.80;99.90;;;;;;4995116;28;20073;-85
2022/07/17 09:20:59;;;;;;;1.90;0.60;;;18.90;99.90;;;;;;5010246;28;20041;-86
2022/07/17 09:23:34;;;;;;;2.33;0.60;;;18.90;99.90;;;;;;4992342;28;20106;-86
2022/07/17 09:26:04;;;;;;;3.63;1.00;;;19.00;99.90;;;;;;4989546;28;20133;-86
2022/07/17 09:28:46;;;;;;;2.78;0.80;;;19.10;99.90;;;;;;4997101;28;20085;-86
2022/07/17 09:31:25;;;;;;;3.20;0.77;;;19.20;99.90;;;;;;5014587;28;20040;-84
2022/07/17 09:34:00;;;;;;;1.15;0.45;;;19.30;99.90;;;;;;5016009;28;20054;-85
2022/07/17 09:36:29;;;;;;;1.77;0.77;;;19.30;99.90;;;;;;4996205;28;20030;-87
2022/07/17 09:39:19;;;;;;;5.05;0.95;;;19.40;99.90;;;;;;5012017;28;20045;-85
2022/07/17 09:41:54;;;;;;;2.45;0.70;;;19.40;99.90;;;;;;4998457;28;20136;-85
2022/07/17 09:44:25;;;;;;;1.48;0.65;;;19.60;99.90;;;;;;5016658;28;20044;-85
2022/07/17 09:46:59;;;;;;;2.38;0.80;;;19.60;99.90;;;;;;5009746;28;20457;-85
2022/07/17 09:49:30;;;;;;;2.60;0.70;;;19.60;99.90;;;;;;5015744;28;20171;-87
2022/07/17 09:52:19;;;;;;;2.70;0.80;;;19.80;99.90;;;;;;5009406;28;20057;-85
2022/07/17 09:55:04;;;;;;;3.83;0.90;;;20.00;99.90;;;;;;4996558;28;20056;-87
2022/07/17 09:57:34;;;;;;;3.55;0.90;;;20.00;99.90;;;;;;5001449;28;20038;-85
2022/07/17 10:00:16;;;;;;;1.95;0.70;;;20.10;99.90;;;;;;5001875;28;20042;-85
2022/07/17 10:02:48;;;;;;;1.55;0.60;;;20.20;99.90;;;;;;5014983;28;20045;-86
2022/07/17 10:05:23;;;;;;;2.60;0.60;;;20.30;99.90;;;;;;4990734;28;20088;-84
2022/07/17 10:07:49;;;;;;;3.72;0.98;;;20.40;99.90;;;;;;5014726;28;20477;-86
2022/07/17 10:10:36;;;;;;;4.63;1.08;;;20.50;99.90;;;;;;5015474;28;20038;-86
2022/07/17 10:13:15;;;;;;;1.13;0.57;;;20.60;99.90;;;;;;4991439;28;20045;-85
2022/07/17 10:16:13;;;;;;;1.70;0.68;;;20.50;99.90;;;;;;4991586;28;20457;-86
2022/07/17 10:19:16;;;;;;;2.70;0.70;;;20.50;99.90;;;;;;5001000;28;20041;-87
2022/07/17 10:22:12;;;;;;;1.58;0.73;;;20.60;99.90;;;;;;4987828;28;20079;-86
2022/07/17 10:25:06;;;;;;;1.52;0.65;;;20.70;99.90;;;;;;4994884;28;20080;-89
2022/07/17 10:27:56;;;;;;;3.28;0.73;;;20.80;99.90;;;;;;5011683;28;20069;-85
2022/07/17 10:30:36;;;;;;;1.75;0.60;;;20.90;99.90;;;;;;4973164;28;20054;-85
2022/07/17 10:33:06;;;;;;;1.65;0.70;;;21.00;99.90;;;;;;5011180;28;20056;-86
2022/07/17 10:35:51;;;;;;;3.78;0.80;;;21.00;99.90;;;;;;5019605;28;20046;-86
2022/07/17 10:38:21;;;;;;;3.13;1.17;;;21.10;99.90;;;;;;4998249;28;20124;-85
2022/07/17 10:41:04;;;;;;;1.63;0.50;;;21.20;99.90;;;;;;5020770;28;20094;-86
2022/07/17 10:43:47;;;;;;;3.50;0.70;;;21.20;99.90;;;;;;5008958;28;20033;-85
2022/07/17 10:46:13;;;;;;;1.88;0.88;;;21.30;99.90;;;;;;5009858;28;20030;-85
2022/07/17 10:49:01;;;;;;;2.38;0.50;;;21.40;99.90;;;;;;5012789;28;20034;-85
2022/07/17 10:51:32;;;;;;;1.95;0.73;;;21.50;99.90;;;;;;5013268;28;20038;-87
2022/07/17 10:54:02;;;;;;;1.92;0.70;;;21.50;99.90;;;;;;5007251;28;20077;-82
2022/07/17 10:56:49;;;;;;;2.22;0.80;;;21.60;99.90;;;;;;5014833;28;20038;-85
2022/07/17 10:59:27;;;;;;;2.60;0.50;;;21.70;99.90;;;;;;4989946;28;20042;-86
2022/07/17 11:02:00;;;;;;;2.03;0.60;;;21.90;99.90;;;;;;4996221;28;20261;-88
2022/07/17 11:05:04;;;;;;;1.25;0.40;;;22.00;99.90;;;;;;5024679;28;20045;-84
2022/07/17 11:07:30;;;;;;;5.70;0.65;;;22.10;99.90;;;;;;5021732;23;20047;-86
2022/07/17 11:09:56;;;;;;;;;;;22.20;99.90;;;;;;5002107;28;20034;-87
2022/07/17 11:12:39;;;;;;;1.98;0.70;;;22.20;99.90;;;;;;4989860;28;20237;-87
2022/07/17 11:15:07;;;;;;;3.47;0.52;;;22.30;99.90;;;;;;4992245;28;20030;-86
2022/07/17 11:17:35;;;;;;;1.45;0.50;;;22.40;99.90;;;;;;4989148;28;20492;-87
2022/07/17 11:20:03;;;;;;;3.22;0.82;;;22.50;99.90;;;;;;4991475;28;20034;-86
2022/07/17 11:22:28;;;;;;;2.58;0.80;;;22.60;99.90;;;;;;4989819;28;20030;-86
2022/07/17 11:25:04;;;;;;;;;;;22.70;99.90;;;;;;4991425;28;20041;-88
2022/07/17 11:27:30;;;;;;;2.28;0.68;;;22.70;99.90;;;;;;4971972;28;20365;-87
2022/07/17 11:29:56;;;;;;;;;;;22.80;99.90;;;;;;4989224;28;20034;-87
2022/07/17 11:32:22;;;;;;;1.48;0.60;;;22.90;99.90;;;;;;4986552;28;20001;-87
2022/07/17 11:34:53;;;;;;;3.33;0.75;;;22.90;99.90;;;;;;4965321;28;20733;-86
2022/07/17 11:37:22;;;;;;;3.13;1.13;;;23.00;99.90;;;;;;4967818;28;20444;-87
2022/07/17 11:39:50;;;;;;;3.08;0.80;;;23.10;99.90;;;;;;4969365;28;20054;-86
2022/07/17 11:42:22;;;;;;;2.25;0.70;;;23.30;99.90;;;;;;5003069;28;20039;-87
2022/07/17 11:44:57;;;;;;;1.98;0.95;;;23.20;99.20;;;;;;4973229;28;20053;-86
2022/07/17 11:47:29;;;;;;;2.90;0.90;;;23.20;98.30;;;;;;4971164;28;20078;-86
2022/07/17 11:50:21;;;;;;;1.80;0.90;;;23.20;99.00;;;;;;4987556;28;20108;-86
2022/07/17 11:52:50;;;;;;;3.33;0.82;;;23.30;96.10;;;;;;4971520;28;20062;-87
2022/07/17 11:55:16;;;;;;;3.25;1.00;;;23.30;97.70;;;;;;4986647;28;20046;-87
2022/07/17 11:57:50;;;;;;;2.95;0.98;;;23.40;97.70;;;;;;4980513;28;20120;-87
2022/07/17 12:00:18;;;;;;;2.05;1.02;;;23.50;96.50;;;;;;4998834;28;20042;-86
2022/07/17 12:02:44;;;;;;;2.75;1.05;;;23.50;95.90;;;;;;4989439;28;20535;-87
2022/07/17 12:05:27;;;;;;;;;;;23.60;96.20;;;;;;4985654;28;20046;-87
2022/07/17 12:07:59;;;;;;;5.05;1.15;;;23.60;93.20;;;;;;4971772;28;19926;-86
2022/07/17 12:10:29;;;;;;;5.35;1.17;;;23.70;96.50;;;;;;4991406;28;20034;-87
2022/07/17 12:13:31;;;;;;;2.20;1.10;;;23.80;96.50;;;;;;4962687;28;20058;-87
2022/07/17 12:16:21;;;;;;;3.72;1.10;;;23.80;94.30;;;;;;5004053;28;20232;-87
2022/07/17 12:19:05;;;;;;;2.55;1.00;;;23.90;90.60;;;;;;4990385;28;20042;-87
2022/07/17 12:21:33;;;;;;;4.60;0.93;;;23.90;90.10;;;;;;4989932;28;20117;-87
2022/07/17 12:24:08;;;;;;;2.35;1.13;;;23.80;91.00;;;;;;4988419;28;20125;-88
2022/07/17 12:26:36;;;;;;;;;;;23.90;92.50;;;;;;4990666;28;20138;-87
2022/07/17 12:29:07;;;;;;;4.60;1.88;;;23.90;92.30;;;;;;4990775;28;19937;-85
2022/07/17 12:31:33;;;;;;;3.28;1.40;;;24.00;90.80;;;;;;4989948;28;20593;-87
2022/07/17 12:34:01;;;;;;;;;;;24.10;92.70;;;;;;4984049;28;20145;-87
2022/07/17 12:36:38;;;;;;;2.45;1.50;;;24.30;88.50;;;;;;4986150;28;19917;-86
2022/07/17 12:39:06;;;;;;;2.38;1.08;;;24.30;90.40;;;;;;5004307;28;20044;-86
2022/07/17 12:41:32;;;;;;;3.38;1.42;;;24.40;90.10;;;;;;5003960;28;20141;-87
2022/07/17 12:44:06;;;;;;;3.25;1.48;;;24.40;90.60;;;;;;4987647;28;20133;-87
2022/07/17 12:46:32;;;;;;;4.97;1.10;;;24.60;90.00;;;;;;4984984;28;20046;-87
2022/07/17 12:48:57;;;;;;;3.45;1.00;;;24.60;89.80;;;;;;4986630;28;20046;-87
2022/07/17 12:51:30;;;;;;;;;;;24.70;90.10;;;;;;4990196;28;20058;-87
2022/07/17 12:53:56;;;;;;;2.78;1.17;;;24.70;87.50;;;;;;4986418;28;20364;-84
2022/07/17 12:56:21;;;;;;;3.55;1.05;;;24.80;89.40;;;;;;4963367;28;20041;-88
2022/07/17 12:58:50;;;;;;;4.07;1.17;;;24.80;88.50;;;;;;4989699;28;20042;-86
2022/07/17 13:01:16;;;;;;;3.78;1.42;;;24.80;88.00;;;;;;4991081;28;20042;-87
2022/07/17 13:03:44;;;;;;;3.20;1.38;;;24.90;86.40;;;;;;4989089;28;20069;-88
2022/07/17 13:06:13;;;;;;;4.15;1.70;;;24.90;86.10;;;;;;4982309;28;20042;-87
2022/07/17 13:08:49;;;;;;;3.85;2.00;;;25.00;83.20;;;;;;4986793;28;20081;-86